Time,TemperatureF,DewpointF,PressureIn,WindDirection,WindDirectionDegrees,WindSpeedMPH,WindSpeedGustMPH,Humidity,HourlyPrecipIn,Conditions,Clouds,dailyrainin,SoftwareType,DateUTC
2013-02-17 00:09:00,1.4,-3.0,30.63,WSW,248,0.0,1.0,80,0.00,,,0.00,weatherlink.com 1.10,2013-02-17 07:09:00,
2013-02-17 00:24:00,1.0,-3.0,30.63,WSW,247,1.0,1.0,82,0.00,,,0.00,weatherlink.com 1.10,2013-02-17 07:24:00,
2013-02-17 00:39:00,0.8,-4.0,30.62,West,262,0.0,1.0,82,0.00,,,0.00,weatherlink.com 1.10,2013-02-17 07:39:00,
2013-02-17 00:54:00,1.1,-3.0,30.61,WSW,257,0.0,2.0,83,0.00,,,0.00,weatherlink.com 1.10,2013-02-17 07:54:00,
2013-02-17 01:09:00,-0.1,-5.0,30.61,WSW,254,0.0,1.0,81,0.00,,,0.00,weatherlink.com 1.10,2013-02-17 08:09:00,
2013-02-17 01:25:00,-0.9,-5.0,30.60,West,266,0.0,1.0,82,0.00,,,0.00,weatherlink.com 1.10,2013-02-17 08:25:00,
2013-02-17 01:39:00,-1.6,-6.0,30.60,WSW,257,0.0,1.0,83,0.00,,,0.00,weatherlink.com 1.10,2013-02-17 08:39:00,
2013-02-17 01:54:00,-1.9,-6.0,30.59,WSW,254,0.0,1.0,83,0.00,,,0.00,weatherlink.com 1.10,2013-02-17 08:54:00,
2013-02-17 02:09:00,-2.5,-7.0,30.59,West,260,0.0,1.0,82,0.00,,,0.00,weatherlink.com 1.10,2013-02-17 09:09:00,
2013-02-17 02:25:00,-3.0,-7.0,30.59,West,259,0.0,1.0,82,0.00,,,0.00,weatherlink.com 1.10,2013-02-17 09:25:00,
2013-02-17 02:40:00,-3.5,-8.0,30.58,West,260,0.0,1.0,82,0.00,,,0.00,weatherlink.com 1.10,2013-02-17 09:40:00,
2013-02-17 02:55:00,-4.2,-8.0,30.58,West,266,0.0,1.0,82,0.00,,,0.00,weatherlink.com 1.10,2013-02-17 09:55:00,
2013-02-17 03:10:00,-4.4,-9.0,30.57,West,260,0.0,1.0,82,0.00,,,0.00,weatherlink.com 1.10,2013-02-17 10:10:00,
2013-02-17 03:25:00,-4.1,-8.0,30.56,WSW,253,0.0,2.0,84,0.00,,,0.00,weatherlink.com 1.10,2013-02-17 10:25:00,
2013-02-17 03:40:00,-4.6,-9.0,30.55,WSW,250,0.0,1.0,82,0.00,,,0.00,weatherlink.com 1.10,2013-02-17 10:40:00,
2013-02-17 03:55:00,-5.1,-9.0,30.55,WSW,254,0.0,1.0,82,0.00,,,0.00,weatherlink.com 1.10,2013-02-17 10:55:00,
2013-02-17 04:10:00,-5.5,-9.0,30.54,WSW,255,0.0,1.0,83,0.00,,,0.00,weatherlink.com 1.10,2013-02-17 11:10:00,
2013-02-17 04:25:00,-5.8,-10.0,30.54,WSW,252,0.0,1.0,82,0.00,,,0.00,weatherlink.com 1.10,2013-02-17 11:25:00,
2013-02-17 04:40:00,-6.0,-10.0,30.54,West,259,0.0,1.0,82,0.00,,,0.00,weatherlink.com 1.10,2013-02-17 11:40:00,
2013-02-17 04:55:00,-6.1,-10.0,30.53,West,264,0.0,1.0,82,0.00,,,0.00,weatherlink.com 1.10,2013-02-17 11:55:00,
2013-02-17 05:10:00,-6.1,-10.0,30.52,WSW,253,0.0,1.0,82,0.00,,,0.00,weatherlink.com 1.10,2013-02-17 12:10:00,
2013-02-17 05:25:00,-5.5,-9.0,30.52,West,269,0.0,1.0,83,0.00,,,0.00,weatherlink.com 1.10,2013-02-17 12:25:00,
2013-02-17 05:40:00,-5.5,-10.0,30.51,WSW,251,0.0,1.0,81,0.00,,,0.00,weatherlink.com 1.10,2013-02-17 12:40:00,
2013-02-17 05:55:00,-5.2,-9.0,30.50,West,266,0.0,1.0,82,0.00,,,0.00,weatherlink.com 1.10,2013-02-17 12:55:00,
2013-02-17 06:11:00,-5.2,-9.0,30.50,WSW,255,1.0,1.0,82,0.00,,,0.00,weatherlink.com 1.10,2013-02-17 13:11:00,
2013-02-17 06:26:00,-4.7,-9.0,30.50,WSW,248,0.0,1.0,82,0.00,,,0.00,weatherlink.com 1.10,2013-02-17 13:26:00,
2013-02-17 06:41:00,-4.9,-9.0,30.49,WSW,257,0.0,1.0,83,0.00,,,0.00,weatherlink.com 1.10,2013-02-17 13:41:00,
2013-02-17 06:56:00,-5.1,-10.0,30.48,WSW,255,0.0,1.0,81,0.00,,,0.00,weatherlink.com 1.10,2013-02-17 13:56:00,
2013-02-17 07:11:00,-5.0,-9.0,30.48,West,259,0.0,1.0,82,0.00,,,0.00,weatherlink.com 1.10,2013-02-17 14:11:00,
2013-02-17 07:26:00,-4.9,-9.0,30.48,WSW,253,0.0,1.0,81,0.00,,,0.00,weatherlink.com 1.10,2013-02-17 14:26:00,
2013-02-17 07:41:00,-3.6,-8.0,30.47,WSW,250,0.0,1.0,82,0.00,,,0.00,weatherlink.com 1.10,2013-02-17 14:41:00,
2013-02-17 07:56:00,-1.9,-7.0,30.46,WSW,254,0.0,1.0,80,0.00,,,0.00,weatherlink.com 1.10,2013-02-17 14:56:00,
2013-02-17 08:11:00,-0.8,-6.0,30.45,West,264,0.0,1.0,79,0.00,,,0.00,weatherlink.com 1.10,2013-02-17 15:11:00,
2013-02-17 08:26:00,0.4,-4.0,30.44,West,266,0.0,1.0,81,0.00,,,0.00,weatherlink.com 1.10,2013-02-17 15:26:00,
2013-02-17 08:41:00,3.5,-1.0,30.43,West,264,0.0,1.0,80,0.00,,,0.00,weatherlink.com 1.10,2013-02-17 15:41:00,
2013-02-17 08:56:00,6.8,2.0,30.41,West,265,0.0,1.0,79,0.00,,,0.00,weatherlink.com 1.10,2013-02-17 15:56:00,
2013-02-17 09:12:00,12.7,6.0,30.40,West,264,0.0,1.0,75,0.00,,,0.00,weatherlink.com 1.10,2013-02-17 16:12:00,
2013-02-17 09:27:00,15.5,7.0,30.38,West,260,0.0,0.0,70,0.00,,,0.00,weatherlink.com 1.10,2013-02-17 16:27:00,
2013-02-17 09:42:00,17.8,9.0,30.37,West,260,0.0,0.0,67,0.00,,,0.00,weatherlink.com 1.10,2013-02-17 16:42:00,
2013-02-17 09:57:00,21.0,6.0,30.35,ESE,122,0.0,3.0,53,0.00,,,0.00,weatherlink.com 1.10,2013-02-17 16:57:00,
2013-02-17 10:12:00,21.0,4.0,30.34,ESE,107,0.0,2.0,48,0.00,,,0.00,weatherlink.com 1.10,2013-02-17 17:12:00,
2013-02-17 10:27:00,22.2,3.0,30.32,East,98,1.0,4.0,43,0.00,,,0.00,weatherlink.com 1.10,2013-02-17 17:27:00,
2013-02-17 10:42:00,24.1,4.0,30.31,ESE,105,0.0,6.0,43,0.00,,,0.00,weatherlink.com 1.10,2013-02-17 17:42:00,
2013-02-17 10:57:00,27.5,5.0,30.29,East,92,0.0,3.0,39,0.00,,,0.00,weatherlink.com 1.10,2013-02-17 17:57:00,
2013-02-17 11:12:00,29.3,5.0,30.27,East,98,2.0,5.0,36,0.00,,,0.00,weatherlink.com 1.10,2013-02-17 18:12:00,
2013-02-17 11:27:00,31.0,7.0,30.25,ESE,109,0.0,5.0,37,0.00,,,0.00,weatherlink.com 1.10,2013-02-17 18:27:00,
2013-02-17 11:42:00,33.4,6.0,30.23,ESE,107,0.0,7.0,32,0.00,,,0.00,weatherlink.com 1.10,2013-02-17 18:42:00,
2013-02-17 11:57:00,38.1,4.0,30.21,East,94,2.0,6.0,24,0.00,,,0.00,weatherlink.com 1.10,2013-02-17 18:57:00,
2013-02-17 12:12:00,39.4,-1.0,30.19,ESE,118,2.0,8.0,18,0.00,,,0.00,weatherlink.com 1.10,2013-02-17 19:12:00,
2013-02-17 12:27:00,37.2,-1.0,30.18,SE,131,1.0,12.0,20,0.00,,,0.00,weatherlink.com 1.10,2013-02-17 19:27:00,
2013-02-17 12:43:00,36.9,0.0,30.16,South,185,2.0,11.0,21,0.00,,,0.00,weatherlink.com 1.10,2013-02-17 19:43:00,
2013-02-17 12:58:00,35.1,2.0,30.15,ESE,120,3.0,6.0,24,0.00,,,0.00,weatherlink.com 1.10,2013-02-17 19:58:00,
2013-02-17 13:13:00,34.9,2.0,30.14,ESE,117,5.0,5.0,25,0.00,,,0.00,weatherlink.com 1.10,2013-02-17 20:13:00,
2013-02-17 13:28:00,34.3,3.0,30.13,East,98,5.0,8.0,26,0.00,,,0.00,weatherlink.com 1.10,2013-02-17 20:28:00,
2013-02-17 13:43:00,34.6,2.0,30.12,SE,136,0.0,6.0,25,0.00,,,0.00,weatherlink.com 1.10,2013-02-17 20:43:00,
2013-02-17 13:58:00,33.3,3.0,30.11,SE,139,0.0,5.0,27,0.00,,,0.00,weatherlink.com 1.10,2013-02-17 20:58:00,
2013-02-17 14:13:00,33.2,2.0,30.10,ESE,105,2.0,7.0,26,0.00,,,0.00,weatherlink.com 1.10,2013-02-17 21:13:00,
2013-02-17 14:28:00,33.5,2.0,30.09,West,275,2.0,4.0,26,0.00,,,0.00,weatherlink.com 1.10,2013-02-17 21:28:00,
2013-02-17 14:43:00,34.3,1.0,30.07,ESE,113,0.0,6.0,24,0.00,,,0.00,weatherlink.com 1.10,2013-02-17 21:43:00,
2013-02-17 14:59:00,34.4,-3.0,30.07,ENE,77,3.0,7.0,20,0.00,,,0.00,weatherlink.com 1.10,2013-02-17 21:59:00,
2013-02-17 15:13:00,34.5,1.0,30.06,SE,137,0.0,6.0,24,0.00,,,0.00,weatherlink.com 1.10,2013-02-17 22:13:00,
2013-02-17 15:28:00,35.0,-2.0,30.06,South,174,1.0,10.0,21,0.00,,,0.00,weatherlink.com 1.10,2013-02-17 22:28:00,
2013-02-17 15:43:00,34.6,-2.0,30.06,East,94,2.0,8.0,21,0.00,,,0.00,weatherlink.com 1.10,2013-02-17 22:43:00,
2013-02-17 15:58:00,34.3,-1.0,30.05,SE,124,0.0,10.0,22,0.00,,,0.00,weatherlink.com 1.10,2013-02-17 22:58:00,
2013-02-17 16:14:00,33.9,-2.0,30.04,NNE,23,3.0,8.0,21,0.00,,,0.00,weatherlink.com 1.10,2013-02-17 23:14:00,
2013-02-17 16:29:00,33.5,-1.0,30.04,ESE,110,1.0,5.0,23,0.00,,,0.00,weatherlink.com 1.10,2013-02-17 23:29:00,
2013-02-17 16:44:00,33.7,0.0,30.04,ESE,102,2.0,6.0,24,0.00,,,0.00,weatherlink.com 1.10,2013-02-17 23:44:00,
2013-02-17 16:59:00,34.5,4.0,30.04,ENE,77,0.0,8.0,27,0.00,,,0.00,weatherlink.com 1.10,2013-02-17 23:59:00,
2013-02-17 17:14:00,31.4,2.0,30.04,ESE,112,1.0,7.0,29,0.00,,,0.00,weatherlink.com 1.10,2013-02-18 00:14:00,
2013-02-17 17:29:00,28.1,4.0,30.04,ESE,110,0.0,1.0,36,0.00,,,0.00,weatherlink.com 1.10,2013-02-18 00:29:00,
2013-02-17 17:44:00,25.9,5.0,30.04,ESE,110,0.0,1.0,41,0.00,,,0.00,weatherlink.com 1.10,2013-02-18 00:44:00,
2013-02-17 17:59:00,24.5,5.0,30.04,SSW,205,0.0,1.0,44,0.00,,,0.00,weatherlink.com 1.10,2013-02-18 00:59:00,
2013-02-17 18:15:00,23.5,5.0,30.05,SSW,205,0.0,0.0,45,0.00,,,0.00,weatherlink.com 1.10,2013-02-18 01:15:00,
2013-02-17 18:29:00,22.0,6.0,30.05,ESE,114,0.0,1.0,51,0.00,,,0.00,weatherlink.com 1.10,2013-02-18 01:29:00,
2013-02-17 18:44:00,20.9,7.0,30.05,ESE,123,0.0,1.0,54,0.00,,,0.00,weatherlink.com 1.10,2013-02-18 01:44:00,
2013-02-17 18:59:00,19.5,6.0,30.05,SE,136,0.0,1.0,55,0.00,,,0.00,weatherlink.com 1.10,2013-02-18 01:59:00,
2013-02-17 19:15:00,19.2,5.0,30.05,South,182,0.0,1.0,55,0.00,,,0.00,weatherlink.com 1.10,2013-02-18 02:15:00,
2013-02-17 19:30:00,18.0,6.0,30.05,ESE,105,0.0,1.0,59,0.00,,,0.00,weatherlink.com 1.10,2013-02-18 02:30:00,
2013-02-17 19:45:00,18.5,6.0,30.04,South,191,0.0,1.0,59,0.00,,,0.00,weatherlink.com 1.10,2013-02-18 02:45:00,
2013-02-17 20:00:00,18.5,7.0,30.05,WSW,251,0.0,1.0,60,0.00,,,0.00,weatherlink.com 1.10,2013-02-18 03:00:00,
2013-02-17 20:15:00,19.1,7.0,30.05,ESE,117,0.0,1.0,60,0.00,,,0.00,weatherlink.com 1.10,2013-02-18 03:15:00,
2013-02-17 20:30:00,19.5,8.0,30.05,SE,124,0.0,1.0,60,0.00,,,0.00,weatherlink.com 1.10,2013-02-18 03:30:00,
2013-02-17 20:45:00,21.7,9.0,30.04,SSW,203,0.0,3.0,59,0.00,,,0.00,weatherlink.com 1.10,2013-02-18 03:45:00,
2013-02-17 21:00:00,24.5,12.0,30.05,SE,136,3.0,7.0,60,0.00,,,0.00,weatherlink.com 1.10,2013-02-18 04:00:00,
2013-02-17 21:15:00,24.6,14.0,30.05,ESE,109,1.0,6.0,65,0.00,,,0.00,weatherlink.com 1.10,2013-02-18 04:15:00,
2013-02-17 21:30:00,24.4,15.0,30.06,WSW,238,1.0,8.0,67,0.00,,,0.00,weatherlink.com 1.10,2013-02-18 04:30:00,
2013-02-17 21:46:00,23.3,17.0,30.06,South,169,0.0,1.0,78,0.00,,,0.00,weatherlink.com 1.10,2013-02-18 04:46:00,
2013-02-17 22:00:00,22.2,16.0,30.06,ESE,122,0.0,1.0,78,0.00,,,0.00,weatherlink.com 1.10,2013-02-18 05:00:00,
2013-02-17 22:15:00,20.4,15.0,30.05,SSE,160,0.0,1.0,80,0.00,,,0.00,weatherlink.com 1.10,2013-02-18 05:15:00,
2013-02-17 22:30:00,18.5,14.0,30.05,South,170,0.0,0.0,81,0.00,,,0.00,weatherlink.com 1.10,2013-02-18 05:30:00,
2013-02-17 22:46:00,16.7,13.0,30.04,South,186,0.0,0.0,84,0.00,,,0.00,weatherlink.com 1.10,2013-02-18 05:46:00,
2013-02-17 23:01:00,15.7,12.0,30.04,SSW,213,0.0,1.0,85,0.00,,,0.00,weatherlink.com 1.10,2013-02-18 06:01:00,
2013-02-17 23:16:00,16.2,13.0,30.03,West,259,0.0,1.0,85,0.00,,,0.00,weatherlink.com 1.10,2013-02-18 06:16:00,
2013-02-17 23:31:00,16.3,13.0,30.03,South,181,0.0,1.0,85,0.00,,,0.00,weatherlink.com 1.10,2013-02-18 06:31:00,
2013-02-17 23:46:00,16.4,13.0,30.03,South,181,0.0,0.0,85,0.00,,,0.00,weatherlink.com 1.10,2013-02-18 06:46:00,